Weather at Lawas Airport

Public forecast

Using degrees Celsius for public forecast. Weather courtesy of forecast.io.

Closest aviation weather report (METAR) to Lawas Airport

Closest report is Labuan Airport, 28.7 nm (53.2 km) NNW.

2024/04/24 16:00 (retrieved 39 minutes ago)

WBKL 241600Z 00000KT 9999 FEW010 FEW016CB 27/26 Q1009 RETSRA

Closest aviation forecast (TAF) to Lawas Airport

Closest forecast is Labuan Airport, 28.7 nm (53.2 km) NNW.

2024/04/24 12:00 Ammendment (retrieved 5 hours ago)

TAF AMD WBKL 241225Z 2412/2512 VRB03KT 9999 FEW015